createdAt,value
2019-05-29T00:01:16.201Z,8.80
2019-05-29T00:03:41.786Z,8.90
2019-05-29T00:06:12.399Z,8.90
2019-05-29T00:08:42.361Z,8.90
2019-05-29T00:11:12.290Z,8.90
2019-05-29T00:13:42.070Z,8.90
2019-05-29T00:16:12.450Z,8.80
2019-05-29T00:18:42.457Z,8.90
2019-05-29T00:21:13.103Z,8.80
2019-05-29T00:23:43.037Z,8.80
2019-05-29T00:26:12.837Z,8.80
2019-05-29T00:28:42.794Z,8.70
2019-05-29T00:31:12.550Z,8.80
2019-05-29T00:33:42.376Z,8.80
2019-05-29T00:36:12.362Z,8.80
2019-05-29T00:38:42.202Z,8.80
2019-05-29T00:41:12.960Z,8.80
2019-05-29T00:43:42.925Z,8.70
2019-05-29T00:46:13.426Z,8.70
2019-05-29T00:48:43.454Z,8.70
2019-05-29T00:51:13.270Z,8.70
2019-05-29T00:53:43.097Z,8.70
2019-05-29T00:56:13.186Z,8.80
2019-05-29T00:58:42.995Z,8.80
2019-05-29T01:01:13.390Z,8.80
2019-05-29T01:03:43.294Z,8.80
2019-05-29T01:06:13.937Z,8.80
2019-05-29T01:08:43.910Z,8.80
2019-05-29T01:11:14.704Z,8.90
2019-05-29T01:13:44.793Z,8.90
2019-05-29T01:16:15.372Z,8.90
2019-05-29T01:18:45.926Z,8.90
2019-05-29T01:21:15.986Z,8.90
2019-05-29T01:23:46.148Z,8.80
2019-05-29T01:26:16.544Z,8.80
2019-05-29T01:28:46.776Z,8.80
2019-05-29T01:31:17.734Z,8.80
2019-05-29T01:33:48.179Z,8.80
2019-05-29T01:36:18.585Z,8.90
2019-05-29T01:38:48.613Z,8.90
2019-05-29T01:41:19.389Z,9.00
2019-05-29T01:43:49.270Z,9.00
2019-05-29T01:46:19.501Z,9.00
2019-05-29T01:48:49.493Z,9.10
2019-05-29T01:51:21.802Z,9.00
2019-05-29T01:53:52.059Z,9.00
2019-05-29T01:56:21.985Z,9.00
2019-05-29T01:58:51.922Z,9.00
2019-05-29T02:01:21.956Z,9.00
2019-05-29T02:03:51.842Z,9.00
2019-05-29T02:06:21.931Z,8.90
2019-05-29T02:08:51.823Z,8.90
2019-05-29T02:11:21.699Z,9.00
2019-05-29T02:13:51.526Z,9.00
2019-05-29T02:16:22.700Z,9.00
2019-05-29T02:18:52.766Z,9.10
2019-05-29T02:21:22.711Z,9.10
2019-05-29T02:23:52.574Z,9.10
2019-05-29T02:26:22.469Z,9.10
2019-05-29T02:28:52.350Z,9.10
2019-05-29T02:31:24.151Z,9.10
2019-05-29T02:33:53.771Z,9.10
2019-05-29T02:36:24.534Z,9.10
2019-05-29T02:38:55.720Z,9.10
2019-05-29T02:41:26.255Z,9.20
2019-05-29T02:44:00.236Z,9.30
2019-05-29T02:46:30.233Z,9.30
2019-05-29T02:49:00.443Z,9.30
2019-05-29T02:51:30.542Z,9.30
2019-05-29T02:54:00.423Z,9.20
2019-05-29T02:56:31.259Z,9.20
2019-05-29T02:59:01.331Z,9.20
2019-05-29T03:01:31.818Z,9.20
2019-05-29T03:04:01.820Z,9.20
2019-05-29T03:06:32.328Z,9.20
2019-05-29T03:09:02.816Z,9.20
2019-05-29T03:11:33.448Z,9.20
2019-05-29T03:16:59.495Z,9.20
2019-05-29T03:19:30.347Z,9.20
2019-05-29T03:22:00.851Z,9.20
2019-05-29T03:24:32.725Z,9.20
2019-05-29T03:27:02.794Z,9.30
2019-05-29T03:29:34.291Z,9.30
2019-05-29T03:32:04.447Z,9.30
2019-05-29T03:34:39.625Z,9.30
2019-05-29T03:37:05.933Z,9.30
2019-05-29T03:39:36.589Z,9.30
2019-05-29T03:42:06.720Z,9.30
2019-05-29T03:44:38.578Z,9.40
2019-05-29T03:47:09.414Z,9.40
2019-05-29T03:49:40.157Z,9.40
2019-05-29T03:52:10.333Z,9.30
2019-05-29T03:54:41.136Z,9.40
2019-05-29T03:57:11.606Z,9.40
2019-05-29T03:59:41.720Z,9.30
2019-05-29T04:02:11.907Z,9.30
2019-05-29T04:04:42.364Z,9.30
2019-05-29T04:07:12.287Z,9.40
2019-05-29T04:09:42.124Z,9.50
2019-05-29T04:12:12.050Z,9.60
2019-05-29T04:14:42.638Z,9.60
2019-05-29T04:17:14.351Z,9.60
2019-05-29T04:19:44.341Z,9.70
2019-05-29T04:22:17.176Z,9.80
2019-05-29T04:24:48.557Z,9.70
2019-05-29T04:27:21.618Z,9.80
2019-05-29T04:29:52.831Z,9.80
2019-05-29T04:32:23.007Z,9.80
2019-05-29T04:34:53.682Z,9.80
2019-05-29T04:37:23.813Z,9.80
2019-05-29T04:39:53.687Z,9.80
2019-05-29T04:42:23.591Z,9.60
2019-05-29T04:44:53.460Z,9.60
2019-05-29T04:47:23.409Z,9.60
2019-05-29T04:49:53.345Z,9.60
2019-05-29T04:52:23.392Z,9.70
2019-05-29T04:54:53.311Z,9.70
2019-05-29T04:57:23.204Z,9.70
2019-05-29T04:59:53.786Z,9.70
2019-05-29T05:02:23.912Z,9.80
2019-05-29T05:04:53.775Z,9.70
2019-05-29T05:07:24.001Z,9.80
2019-05-29T05:09:53.831Z,9.80
2019-05-29T05:12:23.699Z,9.70
2019-05-29T05:14:53.847Z,9.70
2019-05-29T05:17:26.558Z,9.80
2019-05-29T05:19:55.290Z,9.80
2019-05-29T05:22:26.357Z,9.80
2019-05-29T05:24:57.311Z,9.80
2019-05-29T05:27:27.502Z,9.90
2019-05-29T05:29:58.776Z,9.80
2019-05-29T05:32:30.500Z,9.90
2019-05-29T05:35:00.928Z,9.90
2019-05-29T05:37:32.607Z,9.90
2019-05-29T05:40:02.941Z,9.90
2019-05-29T05:42:34.798Z,9.90
2019-05-29T05:45:05.050Z,10.00
2019-05-29T05:47:49.964Z,9.90
2019-05-29T05:50:07.929Z,9.80
2019-05-29T05:52:37.853Z,9.90
2019-05-29T05:55:07.995Z,9.90
2019-05-29T05:57:37.940Z,9.90
2019-05-29T06:00:08.049Z,9.80
2019-05-29T06:02:38.223Z,9.90
2019-05-29T06:05:08.770Z,9.90
2019-05-29T06:07:40.441Z,9.90
2019-05-29T06:10:10.662Z,10.00
2019-05-29T06:12:42.931Z,10.00
2019-05-29T06:15:13.231Z,10.00
2019-05-29T06:18:00.556Z,10.10
2019-05-29T06:20:15.613Z,10.10
2019-05-29T06:22:45.871Z,10.10
2019-05-29T06:25:18.158Z,10.20
2019-05-29T06:27:48.493Z,10.20
2019-05-29T06:30:18.778Z,10.20
2019-05-29T06:32:48.766Z,10.20
2019-05-29T06:35:18.763Z,10.20
2019-05-29T06:37:48.743Z,10.20
2019-05-29T06:40:38.423Z,10.20
2019-05-29T06:43:12.036Z,10.30
2019-05-29T06:45:42.483Z,10.30
2019-05-29T06:48:15.520Z,10.30
2019-05-29T06:50:45.491Z,10.30
2019-05-29T06:53:15.399Z,10.30
2019-05-29T06:55:45.398Z,10.30
2019-05-29T06:58:15.367Z,10.40
2019-05-29T07:00:46.772Z,10.40
2019-05-29T07:03:16.870Z,10.50
2019-05-29T07:05:51.312Z,10.60
2019-05-29T07:08:37.367Z,10.60
2019-05-29T07:10:53.404Z,10.80
2019-05-29T07:13:24.786Z,10.90
2019-05-29T07:15:55.539Z,11.00
2019-05-29T07:18:26.239Z,11.20
2019-05-29T07:20:56.575Z,11.60
2019-05-29T07:23:27.060Z,12.10
2019-05-29T07:25:57.364Z,12.50
2019-05-29T07:28:27.582Z,12.40
2019-05-29T07:31:02.791Z,12.40
2019-05-29T07:33:30.425Z,12.30
2019-05-29T07:36:01.523Z,12.40
2019-05-29T07:38:32.111Z,12.20
2019-05-29T07:41:02.723Z,12.30
2019-05-29T07:43:33.563Z,12.20
2019-05-29T07:46:03.859Z,12.10
2019-05-29T07:48:34.131Z,12.10
2019-05-29T07:51:08.958Z,12.10
2019-05-29T07:53:40.175Z,12.10
2019-05-29T07:56:22.213Z,12.30
2019-05-29T07:58:57.135Z,12.50
2019-05-29T08:01:18.680Z,12.60
2019-05-29T08:03:49.766Z,12.40
2019-05-29T08:06:20.183Z,12.40
2019-05-29T08:08:51.101Z,12.50
2019-05-29T08:11:21.874Z,12.70
2019-05-29T08:13:52.085Z,13.10
2019-05-29T08:16:22.403Z,14.10
2019-05-29T08:18:53.282Z,14.80
2019-05-29T08:21:23.763Z,15.10
2019-05-29T08:23:54.085Z,15.40
2019-05-29T08:26:24.652Z,15.50
2019-05-29T08:28:55.017Z,15.40
2019-05-29T08:31:26.220Z,15.70
2019-05-29T08:33:56.807Z,15.70
2019-05-29T08:36:27.375Z,15.50
2019-05-29T08:38:57.886Z,15.90
2019-05-29T08:41:28.126Z,15.90
2019-05-29T08:43:58.392Z,15.40
2019-05-29T08:46:28.484Z,15.10
2019-05-29T08:48:58.445Z,15.20
2019-05-29T08:51:28.353Z,16.20
2019-05-29T08:53:58.275Z,17.10
2019-05-29T08:56:28.334Z,18.00
2019-05-29T08:58:58.774Z,18.60
2019-05-29T09:01:29.675Z,18.40
2019-05-29T09:04:00.483Z,17.60
2019-05-29T09:06:30.945Z,17.00
2019-05-29T09:09:01.021Z,16.80
2019-05-29T09:11:30.935Z,17.50
2019-05-29T09:14:00.806Z,17.90
2019-05-29T09:16:30.766Z,18.30
2019-05-29T09:19:00.926Z,18.60
2019-05-29T09:21:30.907Z,19.00
2019-05-29T09:24:00.911Z,20.10
2019-05-29T09:26:30.965Z,23.50
2019-05-29T09:29:01.123Z,25.20
2019-05-29T09:31:31.824Z,23.20
2019-05-29T09:34:02.094Z,23.70
2019-05-29T09:36:32.647Z,24.10
2019-05-29T09:39:03.506Z,22.00
2019-05-29T09:41:33.975Z,20.40
2019-05-29T09:44:04.588Z,20.50
2019-05-29T09:46:34.560Z,22.70
2019-05-29T09:49:04.836Z,23.70
2019-05-29T09:51:38.686Z,23.70
2019-05-29T09:54:09.070Z,24.90
2019-05-29T09:56:39.450Z,25.60
2019-05-29T09:59:10.013Z,25.40
2019-05-29T10:01:40.333Z,24.20
2019-05-29T10:04:10.795Z,23.10
2019-05-29T10:06:41.294Z,22.50
2019-05-29T10:09:11.634Z,21.60
2019-05-29T10:11:41.892Z,20.70
2019-05-29T10:14:12.504Z,19.40
2019-05-29T10:16:42.542Z,19.00
2019-05-29T10:19:12.772Z,20.10
2019-05-29T10:21:42.829Z,21.90
2019-05-29T10:24:13.010Z,22.00
2019-05-29T10:26:43.432Z,21.00
2019-05-29T10:29:13.440Z,21.20
2019-05-29T10:31:46.822Z,20.60
2019-05-29T10:34:14.992Z,22.10
2019-05-29T10:36:48.261Z,23.10
2019-05-29T10:39:16.943Z,24.00
2019-05-29T10:41:48.633Z,24.20
2019-05-29T10:44:18.795Z,23.30
2019-05-29T10:46:51.832Z,21.70
2019-05-29T10:49:20.946Z,20.30
2019-05-29T10:52:05.677Z,19.80
2019-05-29T10:54:23.467Z,19.20
2019-05-29T10:56:55.012Z,18.90
2019-05-29T10:59:25.027Z,18.80
2019-05-29T11:01:55.544Z,18.90
2019-05-29T11:04:26.364Z,20.10
2019-05-29T11:06:57.055Z,21.70
2019-05-29T11:09:42.841Z,23.20
2019-05-29T11:12:01.336Z,23.60
2019-05-29T11:14:32.607Z,23.20
2019-05-29T11:17:03.175Z,22.80
2019-05-29T11:19:33.661Z,23.30
2019-05-29T11:22:24.751Z,24.50
2019-05-29T11:24:36.260Z,23.80
2019-05-29T11:27:06.432Z,22.60
2019-05-29T11:29:36.563Z,21.80
2019-05-29T11:32:08.548Z,21.30
2019-05-29T11:34:38.499Z,20.20
2019-05-29T11:37:08.968Z,19.50
2019-05-29T11:39:38.899Z,18.60
2019-05-29T11:42:09.115Z,18.40
2019-05-29T11:44:38.983Z,18.30
2019-05-29T11:47:08.988Z,18.30
2019-05-29T11:49:39.069Z,18.30
2019-05-29T11:52:23.785Z,18.10
2019-05-29T11:54:41.587Z,18.40
2019-05-29T11:57:17.350Z,18.60
2019-05-29T11:59:47.863Z,18.60
2019-05-29T12:02:18.071Z,18.70
2019-05-29T12:04:48.084Z,18.50
2019-05-29T12:07:18.040Z,18.90
2019-05-29T12:09:48.207Z,19.60
2019-05-29T12:12:18.697Z,20.20
2019-05-29T12:15:03.520Z,20.70
2019-05-29T12:17:20.603Z,20.80
2019-05-29T12:19:51.867Z,21.90
2019-05-29T12:22:22.529Z,22.10
2019-05-29T12:24:52.597Z,23.00
2019-05-29T12:27:22.823Z,23.00
2019-05-29T12:29:53.221Z,22.30
2019-05-29T12:32:25.253Z,21.60
2019-05-29T12:34:56.815Z,21.20
2019-05-29T12:37:26.967Z,20.40
2019-05-29T12:39:57.453Z,19.50
2019-05-29T12:42:27.657Z,18.80
2019-05-29T12:50:39.567Z,18.90
2019-05-29T12:53:09.656Z,19.00
2019-05-29T12:55:39.566Z,19.10
2019-05-29T12:58:09.661Z,19.10
2019-05-29T13:00:40.210Z,19.10
2019-05-29T13:03:11.505Z,18.60
2019-05-29T13:05:41.741Z,18.50
2019-05-29T13:08:12.206Z,18.20
2019-05-29T13:10:43.077Z,18.70
2019-05-29T13:13:13.583Z,18.90
2019-05-29T13:15:44.104Z,19.10
2019-05-29T13:18:14.351Z,19.20
2019-05-29T13:20:44.804Z,18.70
2019-05-29T13:23:15.872Z,18.70
2019-05-29T13:25:46.107Z,18.80
2019-05-29T13:28:16.580Z,18.80
2019-05-29T13:30:47.542Z,18.70
2019-05-29T13:33:17.565Z,19.10
2019-05-29T13:35:48.208Z,19.10
2019-05-29T13:38:18.478Z,18.70
2019-05-29T13:40:48.535Z,18.80
2019-05-29T13:43:19.179Z,19.60
2019-05-29T13:45:49.630Z,19.80
2019-05-29T13:48:21.328Z,19.80
2019-05-29T13:50:51.660Z,19.50
2019-05-29T13:53:22.143Z,19.40
2019-05-29T13:55:59.702Z,19.00
2019-05-29T13:58:29.954Z,19.00
2019-05-29T14:01:00.763Z,19.70
2019-05-29T14:03:31.206Z,20.60
2019-05-29T14:06:02.921Z,21.10
2019-05-29T14:08:33.339Z,20.70
2019-05-29T14:11:07.144Z,20.40
2019-05-29T14:13:37.631Z,20.70
2019-05-29T14:16:08.498Z,20.70
2019-05-29T14:18:38.604Z,20.60
2019-05-29T14:21:09.957Z,20.00
2019-05-29T14:23:40.123Z,19.10
2019-05-29T14:26:10.773Z,18.50
2019-05-29T14:28:40.837Z,18.40
2019-05-29T14:31:12.081Z,18.50
2019-05-29T14:33:42.291Z,18.90
2019-05-29T14:36:12.407Z,18.90
2019-05-29T14:38:42.338Z,19.30
2019-05-29T14:41:12.270Z,19.50
2019-05-29T14:43:42.562Z,20.00
2019-05-29T14:46:12.462Z,20.20
2019-05-29T14:48:42.690Z,20.10
2019-05-29T14:51:13.336Z,19.90
2019-05-29T14:53:43.861Z,19.80
2019-05-29T14:56:14.748Z,20.20
2019-05-29T14:58:44.942Z,20.10
2019-05-29T15:01:16.151Z,20.10
2019-05-29T15:03:47.231Z,20.20
2019-05-29T15:06:20.828Z,20.50
2019-05-29T15:08:55.477Z,20.10
2019-05-29T15:11:29.292Z,20.20
2019-05-29T15:14:00.280Z,20.00
2019-05-29T15:16:30.477Z,20.20
2019-05-29T15:19:01.114Z,20.40
2019-05-29T15:21:32.056Z,20.30
2019-05-29T15:24:02.726Z,19.90
2019-05-29T15:29:32.279Z,19.60
2019-05-29T15:32:06.238Z,19.20
2019-05-29T15:34:36.785Z,19.20
2019-05-29T15:37:11.465Z,19.10
2019-05-29T15:39:39.430Z,19.20
2019-05-29T15:42:10.915Z,19.20
2019-05-29T15:44:40.824Z,19.10
2019-05-29T15:47:11.156Z,19.00
2019-05-29T15:49:41.657Z,19.00
2019-05-29T15:52:13.165Z,18.90
2019-05-29T15:54:43.533Z,18.50
2019-05-29T15:57:13.875Z,18.30
2019-05-29T15:59:44.521Z,18.40
2019-05-29T16:02:15.630Z,18.60
2019-05-29T16:04:46.727Z,18.80
2019-05-29T16:07:19.521Z,18.70
2019-05-29T16:09:50.295Z,18.80
2019-05-29T16:12:21.050Z,18.90
2019-05-29T16:14:52.347Z,18.80
2019-05-29T16:17:23.353Z,18.80
2019-05-29T16:19:53.655Z,18.70
2019-05-29T16:22:24.410Z,18.70
2019-05-29T16:24:54.330Z,18.70
2019-05-29T16:27:30.717Z,18.70
2019-05-29T16:29:57.331Z,18.80
2019-05-29T16:32:27.234Z,18.70
2019-05-29T16:34:57.317Z,18.80
2019-05-29T16:37:27.369Z,18.80
2019-05-29T16:39:57.344Z,18.90
2019-05-29T16:42:48.216Z,18.70
2019-05-29T16:45:18.815Z,18.70
2019-05-29T16:47:48.938Z,18.60
2019-05-29T16:50:21.191Z,18.70
2019-05-29T16:53:09.270Z,18.70
2019-05-29T16:55:53.025Z,18.60
2019-05-29T16:58:10.865Z,18.40
2019-05-29T17:00:40.628Z,18.40
2019-05-29T17:03:10.476Z,18.30
2019-05-29T17:05:40.396Z,18.10
2019-05-29T17:08:10.443Z,17.90
2019-05-29T17:10:40.471Z,17.70
2019-05-29T17:13:10.399Z,17.50
2019-05-29T17:15:40.598Z,17.30
2019-05-29T17:18:10.527Z,17.20
2019-05-29T17:20:45.328Z,17.20
2019-05-29T17:23:16.888Z,17.40
2019-05-29T17:25:47.070Z,17.40
2019-05-29T17:28:20.650Z,17.40
2019-05-29T17:30:48.484Z,17.20
2019-05-29T17:33:19.142Z,17.10
2019-05-29T17:35:49.982Z,17.00
2019-05-29T17:38:21.177Z,16.90
2019-05-29T17:40:51.257Z,16.80
2019-05-29T17:43:25.409Z,16.70
2019-05-29T17:45:55.301Z,16.70
2019-05-29T17:48:25.964Z,16.80
2019-05-29T17:50:56.653Z,16.80
2019-05-29T17:53:26.855Z,16.80
2019-05-29T17:55:57.639Z,16.80
2019-05-29T17:58:27.538Z,16.80
2019-05-29T18:00:57.729Z,16.90
2019-05-29T18:03:27.661Z,17.00
2019-05-29T18:05:58.136Z,17.00
2019-05-29T18:08:28.422Z,17.00
2019-05-29T18:10:59.379Z,16.90
2019-05-29T18:13:29.647Z,16.80
2019-05-29T18:15:59.954Z,16.80
2019-05-29T18:18:29.953Z,16.70
2019-05-29T18:21:00.110Z,16.60
2019-05-29T18:23:30.361Z,16.60
2019-05-29T18:26:00.310Z,16.50
2019-05-29T18:28:30.952Z,16.40
2019-05-29T18:31:01.427Z,16.30
2019-05-29T18:33:32.193Z,16.30
2019-05-29T18:36:02.864Z,16.20
2019-05-29T18:38:32.818Z,16.10
2019-05-29T18:41:03.317Z,15.90
2019-05-29T18:43:33.263Z,15.80
2019-05-29T18:46:03.756Z,15.70
2019-05-29T18:48:33.967Z,15.50
2019-05-29T18:51:04.624Z,15.50
2019-05-29T18:53:34.729Z,15.30
2019-05-29T18:56:04.787Z,15.20
2019-05-29T18:58:34.686Z,15.00
2019-05-29T19:01:04.871Z,14.90
2019-05-29T19:03:35.130Z,14.70
2019-05-29T19:06:05.481Z,14.50
2019-05-29T19:08:35.989Z,14.30
2019-05-29T19:11:05.812Z,14.20
2019-05-29T19:13:36.020Z,14.10
2019-05-29T19:19:01.791Z,13.90
2019-05-29T19:21:32.610Z,13.80
2019-05-29T19:24:02.542Z,13.60
2019-05-29T19:26:35.372Z,13.50
2019-05-29T19:29:04.668Z,13.40
2019-05-29T19:31:34.666Z,13.30
2019-05-29T19:34:04.706Z,13.20
2019-05-29T19:36:34.679Z,13.20
2019-05-29T19:39:06.681Z,13.00
2019-05-29T19:41:37.076Z,13.00
2019-05-29T19:44:07.188Z,12.90
2019-05-29T19:46:52.608Z,12.70
2019-05-29T19:49:08.887Z,12.70
2019-05-29T19:51:38.728Z,12.60
2019-05-29T19:54:08.571Z,12.40
2019-05-29T19:56:38.456Z,12.20
2019-05-29T19:59:08.804Z,12.20
2019-05-29T20:01:40.595Z,12.10
2019-05-29T20:04:10.651Z,12.10
2019-05-29T20:06:40.748Z,12.10
2019-05-29T20:09:10.581Z,12.00
2019-05-29T20:11:40.343Z,12.00
2019-05-29T20:14:10.370Z,12.00
2019-05-29T20:16:40.474Z,11.90
2019-05-29T20:19:10.906Z,11.80
2019-05-29T20:21:41.013Z,11.70
2019-05-29T20:24:11.107Z,11.70
2019-05-29T20:26:41.418Z,11.60
2019-05-29T20:29:11.631Z,11.50
2019-05-29T20:31:42.894Z,11.50
2019-05-29T20:34:19.429Z,11.40
2019-05-29T20:37:11.986Z,11.30
2019-05-29T20:39:50.306Z,11.20
2019-05-29T20:42:20.326Z,11.10
2019-05-29T20:44:50.542Z,11.00
2019-05-29T20:47:25.158Z,10.90
2019-05-29T20:49:57.156Z,10.90
2019-05-29T20:52:27.424Z,10.90
2019-05-29T20:54:58.847Z,10.90
2019-05-29T20:57:29.157Z,10.80
2019-05-29T21:00:02.276Z,10.70
2019-05-29T21:02:32.639Z,10.70
2019-05-29T21:05:02.494Z,10.70
2019-05-29T21:07:33.126Z,10.60
2019-05-29T21:10:03.142Z,10.60
2019-05-29T21:12:33.266Z,10.60
2019-05-29T21:15:03.517Z,10.50
2019-05-29T21:17:35.687Z,10.50
2019-05-29T21:20:06.487Z,10.50
2019-05-29T21:22:36.674Z,10.40
2019-05-29T21:25:11.378Z,10.40
2019-05-29T21:27:41.940Z,10.30
2019-05-29T21:30:11.069Z,10.40
2019-05-29T21:32:41.936Z,10.30
2019-05-29T21:35:12.668Z,10.30
2019-05-29T21:37:46.709Z,10.30
2019-05-29T21:40:16.987Z,10.20
2019-05-29T21:42:47.071Z,10.10
2019-05-29T21:45:17.739Z,10.10
2019-05-29T21:47:47.652Z,10.10
2019-05-29T21:50:17.573Z,10.20
2019-05-29T21:52:50.987Z,10.20
2019-05-29T21:55:20.849Z,10.10
2019-05-29T21:57:55.730Z,10.00
2019-05-29T22:00:38.050Z,9.90
2019-05-29T22:03:08.026Z,9.90
2019-05-29T22:05:38.530Z,9.90
2019-05-29T22:08:08.559Z,9.90
2019-05-29T22:10:38.478Z,9.90
2019-05-29T22:13:08.752Z,9.80
2019-05-29T22:15:38.713Z,9.80
2019-05-29T22:18:08.745Z,9.80
2019-05-29T22:20:43.089Z,9.80
2019-05-29T22:23:13.489Z,9.80
2019-05-29T22:25:43.299Z,9.80
2019-05-29T22:28:16.323Z,9.80
2019-05-29T22:30:46.715Z,9.80
2019-05-29T22:33:20.960Z,9.80
2019-05-29T22:35:52.718Z,9.70
2019-05-29T22:38:23.652Z,9.70
2019-05-29T22:40:53.981Z,9.60
2019-05-29T22:43:25.190Z,9.60
2019-05-29T22:45:57.627Z,9.50
2019-05-29T22:48:28.635Z,9.60
2019-05-29T22:51:04.287Z,9.60
2019-05-29T22:53:36.527Z,9.60
2019-05-29T22:56:05.710Z,9.60
2019-05-29T22:58:35.562Z,9.60
2019-05-29T23:01:05.379Z,9.40
2019-05-29T23:03:35.363Z,9.20
2019-05-29T23:06:05.819Z,9.10
2019-05-29T23:08:36.160Z,9.00
2019-05-29T23:11:05.979Z,8.90
2019-05-29T23:13:35.938Z,9.00
2019-05-29T23:16:05.869Z,9.00
2019-05-29T23:18:35.742Z,9.00
2019-05-29T23:21:07.751Z,9.10
2019-05-29T23:23:57.512Z,9.30
2019-05-29T23:26:28.287Z,9.30
2019-05-29T23:28:59.343Z,9.20
2019-05-29T23:31:32.581Z,9.30
2019-05-29T23:34:04.895Z,9.20
2019-05-29T23:36:37.072Z,9.30
2019-05-29T23:39:06.791Z,9.20
2019-05-29T23:41:37.790Z,9.30
2019-05-29T23:44:08.812Z,9.20
2019-05-29T23:46:38.550Z,9.20
2019-05-29T23:49:08.916Z,9.10
2019-05-29T23:51:38.708Z,9.10
2019-05-29T23:54:11.081Z,9.10
2019-05-29T23:57:00.053Z,9.10
2019-05-29T23:59:29.714Z,9.00
